sensor_id;sensor_type;location;lat;lon;timestamp;pressure;altitude;pressure_sealevel;temperature;humidity
64967;BME280;51710;38.732;-121.358;2023-02-16T00:01:20;101829.84;;;14.91;30.74
64967;BME280;51710;38.732;-121.358;2023-02-16T00:03:48;101828.19;;;14.90;30.42
64967;BME280;51710;38.732;-121.358;2023-02-16T00:06:18;101826.66;;;14.88;30.61
64967;BME280;51710;38.732;-121.358;2023-02-16T00:08:47;101827.50;;;14.88;30.11
64967;BME280;51710;38.732;-121.358;2023-02-16T00:11:33;101826.97;;;14.85;31.10
64967;BME280;51710;38.732;-121.358;2023-02-16T00:14:20;101822.59;;;14.84;30.94
64967;BME280;51710;38.732;-121.358;2023-02-16T00:16:52;101829.66;;;14.85;30.12
64967;BME280;51710;38.732;-121.358;2023-02-16T00:19:21;101829.81;;;14.83;30.19
64967;BME280;51710;38.732;-121.358;2023-02-16T00:21:50;101833.47;;;14.82;30.25
64967;BME280;51710;38.732;-121.358;2023-02-16T00:24:17;101823.25;;;14.78;30.72
64967;BME280;51710;38.732;-121.358;2023-02-16T00:26:44;101827.06;;;14.75;30.93
64967;BME280;51710;38.732;-121.358;2023-02-16T00:29:27;101835.09;;;14.75;31.10
64967;BME280;51710;38.732;-121.358;2023-02-16T00:31:55;101842.50;;;14.73;31.41
64967;BME280;51710;38.732;-121.358;2023-02-16T00:34:26;101847.53;;;14.76;31.43
64967;BME280;51710;38.732;-121.358;2023-02-16T00:36:54;101849.38;;;14.76;30.03
64967;BME280;51710;38.732;-121.358;2023-02-16T00:39:21;101848.16;;;14.70;30.54
64967;BME280;51710;38.732;-121.358;2023-02-16T00:42:03;101854.53;;;14.69;30.73
64967;BME280;51710;38.732;-121.358;2023-02-16T00:44:39;101861.03;;;14.66;31.02
64967;BME280;51710;38.732;-121.358;2023-02-16T00:49:56;101863.66;;;14.58;31.68
64967;BME280;51710;38.732;-121.358;2023-02-16T00:54:59;101865.44;;;14.50;32.27
64967;BME280;51710;38.732;-121.358;2023-02-16T00:57:26;101866.72;;;14.46;32.54
64967;BME280;51710;38.732;-121.358;2023-02-16T01:00:13;101869.19;;;14.39;32.82
64967;BME280;51710;38.732;-121.358;2023-02-16T01:02:43;101870.63;;;14.34;33.48
64967;BME280;51710;38.732;-121.358;2023-02-16T01:05:11;101869.56;;;14.27;33.68
64967;BME280;51710;38.732;-121.358;2023-02-16T01:07:38;101863.78;;;14.22;34.03
64967;BME280;51710;38.732;-121.358;2023-02-16T01:10:37;101863.03;;;14.12;34.31
64967;BME280;51710;38.732;-121.358;2023-02-16T01:13:18;101863.22;;;14.01;34.95
64967;BME280;51710;38.732;-121.358;2023-02-16T01:15:45;101869.94;;;13.87;35.27
64967;BME280;51710;38.732;-121.358;2023-02-16T01:18:16;101871.16;;;13.75;35.51
64967;BME280;51710;38.732;-121.358;2023-02-16T01:20:43;101867.81;;;13.64;36.26
64967;BME280;51710;38.732;-121.358;2023-02-16T01:23:11;101866.63;;;13.48;35.85
64967;BME280;51710;38.732;-121.358;2023-02-16T01:25:39;101868.66;;;13.37;36.22
64967;BME280;51710;38.732;-121.358;2023-02-16T01:28:23;101875.75;;;13.28;35.77
64967;BME280;51710;38.732;-121.358;2023-02-16T01:30:50;101874.34;;;13.24;36.28
64967;BME280;51710;38.732;-121.358;2023-02-16T01:33:18;101880.00;;;13.21;36.18
64967;BME280;51710;38.732;-121.358;2023-02-16T01:35:44;101884.78;;;13.18;36.64
64967;BME280;51710;38.732;-121.358;2023-02-16T01:42:13;101889.31;;;12.98;37.04
64967;BME280;51710;38.732;-121.358;2023-02-16T01:44:51;101886.38;;;12.92;36.68
64967;BME280;51710;38.732;-121.358;2023-02-16T01:47:35;101894.94;;;12.86;36.55
64967;BME280;51710;38.732;-121.358;2023-02-16T01:50:12;101885.91;;;12.87;36.67
64967;BME280;51710;38.732;-121.358;2023-02-16T01:52:42;101877.09;;;12.77;36.63
64967;BME280;51710;38.732;-121.358;2023-02-16T01:55:12;101885.69;;;12.61;37.19
64967;BME280;51710;38.732;-121.358;2023-02-16T01:58:05;101900.31;;;12.48;37.33
64967;BME280;51710;38.732;-121.358;2023-02-16T02:03:27;101901.16;;;12.29;38.11
64967;BME280;51710;38.732;-121.358;2023-02-16T02:06:15;101906.63;;;12.18;38.12
64967;BME280;51710;38.732;-121.358;2023-02-16T02:12:31;101913.16;;;11.95;38.79
64967;BME280;51710;38.732;-121.358;2023-02-16T02:15:00;101914.84;;;11.86;38.85
64967;BME280;51710;38.732;-121.358;2023-02-16T02:17:27;101924.94;;;11.73;38.96
64967;BME280;51710;38.732;-121.358;2023-02-16T02:38:08;101942.50;;;10.52;41.07
64967;BME280;51710;38.732;-121.358;2023-02-16T02:43:37;101932.00;;;10.40;41.77
64967;BME280;51710;38.732;-121.358;2023-02-16T02:46:19;101946.66;;;10.34;42.17
64967;BME280;51710;38.732;-121.358;2023-02-16T02:48:49;101945.25;;;10.30;42.24
64967;BME280;51710;38.732;-121.358;2023-02-16T02:51:16;101953.59;;;10.26;42.34
64967;BME280;51710;38.732;-121.358;2023-02-16T02:54:09;101953.13;;;10.20;42.35
64967;BME280;51710;38.732;-121.358;2023-02-16T02:56:59;101955.19;;;10.17;42.35
64967;BME280;51710;38.732;-121.358;2023-02-16T03:00:49;101947.19;;;10.06;42.43
64967;BME280;51710;38.732;-121.358;2023-02-16T03:03:19;101946.75;;;9.90;42.66
64967;BME280;51710;38.732;-121.358;2023-02-16T03:05:54;101949.88;;;9.73;43.02
64967;BME280;51710;38.732;-121.358;2023-02-16T03:08:24;101946.50;;;9.60;43.31
64967;BME280;51710;38.732;-121.358;2023-02-16T03:11:05;101953.75;;;9.47;43.38
64967;BME280;51710;38.732;-121.358;2023-02-16T03:14:00;101958.47;;;9.32;43.97
64967;BME280;51710;38.732;-121.358;2023-02-16T03:16:39;101954.31;;;9.17;44.32
64967;BME280;51710;38.732;-121.358;2023-02-16T03:19:08;101953.44;;;9.05;44.74
64967;BME280;51710;38.732;-121.358;2023-02-16T03:21:55;101955.00;;;8.97;44.69
64967;BME280;51710;38.732;-121.358;2023-02-16T03:24:40;101945.41;;;8.83;44.76
64967;BME280;51710;38.732;-121.358;2023-02-16T03:27:29;101949.63;;;8.75;45.35
64967;BME280;51710;38.732;-121.358;2023-02-16T03:30:16;101947.28;;;8.70;45.17
64967;BME280;51710;38.732;-121.358;2023-02-16T03:32:44;101946.34;;;8.71;45.74
64967;BME280;51710;38.732;-121.358;2023-02-16T03:35:10;101946.13;;;8.74;45.59
64967;BME280;51710;38.732;-121.358;2023-02-16T03:37:41;101937.28;;;8.74;46.11
64967;BME280;51710;38.732;-121.358;2023-02-16T03:40:10;101943.69;;;8.71;45.37
64967;BME280;51710;38.732;-121.358;2023-02-16T03:42:59;101941.72;;;8.62;45.92
64967;BME280;51710;38.732;-121.358;2023-02-16T03:45:26;101936.34;;;8.51;45.94
64967;BME280;51710;38.732;-121.358;2023-02-16T03:47:54;101939.41;;;8.34;46.21
64967;BME280;51710;38.732;-121.358;2023-02-16T03:50:20;101943.72;;;8.24;46.88
64967;BME280;51710;38.732;-121.358;2023-02-16T03:52:47;101942.66;;;8.14;47.11
64967;BME280;51710;38.732;-121.358;2023-02-16T03:55:14;101945.00;;;8.06;47.05
64967;BME280;51710;38.732;-121.358;2023-02-16T03:57:40;101944.84;;;7.96;47.38
64967;BME280;51710;38.732;-121.358;2023-02-16T04:00:07;101947.81;;;7.92;48.17
64967;BME280;51710;38.732;-121.358;2023-02-16T04:02:34;101946.78;;;7.82;48.06
64967;BME280;51710;38.732;-121.358;2023-02-16T04:05:00;101950.81;;;7.75;47.79
64967;BME280;51710;38.732;-121.358;2023-02-16T04:07:26;101941.50;;;7.69;48.08
64967;BME280;51710;38.732;-121.358;2023-02-16T04:09:53;101952.31;;;7.66;48.06
64967;BME280;51710;38.732;-121.358;2023-02-16T04:12:19;101949.97;;;7.62;48.94
64967;BME280;51710;38.732;-121.358;2023-02-16T04:15:11;101954.88;;;7.55;49.22
64967;BME280;51710;38.732;-121.358;2023-02-16T04:17:38;101965.16;;;7.47;49.25
64967;BME280;51710;38.732;-121.358;2023-02-16T04:20:10;101956.16;;;7.37;49.44
64967;BME280;51710;38.732;-121.358;2023-02-16T04:22:37;101949.91;;;7.26;49.39
64967;BME280;51710;38.732;-121.358;2023-02-16T04:25:03;101949.06;;;7.13;49.55
64967;BME280;51710;38.732;-121.358;2023-02-16T04:27:30;101952.94;;;6.95;50.29
64967;BME280;51710;38.732;-121.358;2023-02-16T04:29:56;101948.59;;;6.81;49.94
64967;BME280;51710;38.732;-121.358;2023-02-16T04:32:24;101954.81;;;6.67;50.72
64967;BME280;51710;38.732;-121.358;2023-02-16T04:34:50;101955.63;;;6.55;50.94
64967;BME280;51710;38.732;-121.358;2023-02-16T04:37:17;101960.66;;;6.46;51.09
64967;BME280;51710;38.732;-121.358;2023-02-16T04:39:43;101960.41;;;6.36;51.56
64967;BME280;51710;38.732;-121.358;2023-02-16T04:42:10;101974.03;;;6.30;51.91
64967;BME280;51710;38.732;-121.358;2023-02-16T04:44:36;101975.28;;;6.25;52.72
64967;BME280;51710;38.732;-121.358;2023-02-16T04:47:04;101972.94;;;6.20;52.26
64967;BME280;51710;38.732;-121.358;2023-02-16T04:49:30;101971.31;;;6.18;52.52
64967;BME280;51710;38.732;-121.358;2023-02-16T04:51:56;101971.53;;;6.15;52.37
64967;BME280;51710;38.732;-121.358;2023-02-16T04:54:23;101982.75;;;6.18;53.14
64967;BME280;51710;38.732;-121.358;2023-02-16T04:56:49;101977.38;;;6.20;52.84
64967;BME280;51710;38.732;-121.358;2023-02-16T04:59:15;101984.28;;;6.22;52.65
64967;BME280;51710;38.732;-121.358;2023-02-16T05:01:42;101977.47;;;6.18;53.07
64967;BME280;51710;38.732;-121.358;2023-02-16T05:04:08;101974.06;;;6.16;53.33
64967;BME280;51710;38.732;-121.358;2023-02-16T05:06:36;101973.63;;;6.10;53.90
64967;BME280;51710;38.732;-121.358;2023-02-16T05:09:04;101980.34;;;6.01;54.10
64967;BME280;51710;38.732;-121.358;2023-02-16T05:11:30;101984.31;;;5.94;54.44
64967;BME280;51710;38.732;-121.358;2023-02-16T05:14:24;101991.13;;;5.70;54.70
64967;BME280;51710;38.732;-121.358;2023-02-16T05:17:21;102003.47;;;5.55;54.74
64967;BME280;51710;38.732;-121.358;2023-02-16T05:19:50;102005.06;;;5.58;54.71
64967;BME280;51710;38.732;-121.358;2023-02-16T05:22:17;102006.47;;;5.63;54.46
64967;BME280;51710;38.732;-121.358;2023-02-16T05:24:44;102018.25;;;5.72;54.38
64967;BME280;51710;38.732;-121.358;2023-02-16T05:27:19;102008.09;;;5.80;54.47
64967;BME280;51710;38.732;-121.358;2023-02-16T05:29:46;102017.06;;;5.92;53.97
64967;BME280;51710;38.732;-121.358;2023-02-16T05:32:14;102009.69;;;5.97;53.96
64967;BME280;51710;38.732;-121.358;2023-02-16T05:34:41;102013.50;;;5.93;54.68
64967;BME280;51710;38.732;-121.358;2023-02-16T05:37:10;102006.66;;;5.74;54.72
64967;BME280;51710;38.732;-121.358;2023-02-16T05:39:36;102010.06;;;5.62;54.55
64967;BME280;51710;38.732;-121.358;2023-02-16T05:42:03;102017.25;;;5.60;54.99
64967;BME280;51710;38.732;-121.358;2023-02-16T05:44:30;102013.38;;;5.66;55.12
64967;BME280;51710;38.732;-121.358;2023-02-16T05:46:56;102010.34;;;5.72;54.89
64967;BME280;51710;38.732;-121.358;2023-02-16T05:49:22;102013.53;;;5.77;55.14
64967;BME280;51710;38.732;-121.358;2023-02-16T05:51:49;102016.13;;;5.79;54.96
64967;BME280;51710;38.732;-121.358;2023-02-16T05:54:15;102016.94;;;5.79;55.30
64967;BME280;51710;38.732;-121.358;2023-02-16T05:56:48;102015.84;;;5.83;55.24
64967;BME280;51710;38.732;-121.358;2023-02-16T05:59:15;102024.34;;;5.88;55.41
64967;BME280;51710;38.732;-121.358;2023-02-16T06:01:42;102025.66;;;5.95;55.31
64967;BME280;51710;38.732;-121.358;2023-02-16T06:04:10;102032.47;;;5.99;55.23
64967;BME280;51710;38.732;-121.358;2023-02-16T06:06:38;102034.81;;;5.90;55.68
64967;BME280;51710;38.732;-121.358;2023-02-16T06:09:06;102023.50;;;5.73;55.09
64967;BME280;51710;38.732;-121.358;2023-02-16T06:11:33;102034.22;;;5.70;55.22
64967;BME280;51710;38.732;-121.358;2023-02-16T06:14:05;102032.78;;;5.65;55.59
64967;BME280;51710;38.732;-121.358;2023-02-16T06:16:32;102041.94;;;5.45;55.95
64967;BME280;51710;38.732;-121.358;2023-02-16T06:18:59;102036.34;;;5.36;56.25
64967;BME280;51710;38.732;-121.358;2023-02-16T06:21:26;102052.09;;;5.37;56.34
64967;BME280;51710;38.732;-121.358;2023-02-16T06:23:53;102044.59;;;5.45;56.62
64967;BME280;51710;38.732;-121.358;2023-02-16T06:26:19;102046.84;;;5.51;56.31
64967;BME280;51710;38.732;-121.358;2023-02-16T06:28:46;102051.59;;;5.60;56.02
64967;BME280;51710;38.732;-121.358;2023-02-16T06:31:12;102066.03;;;5.69;56.52
64967;BME280;51710;38.732;-121.358;2023-02-16T06:33:39;102058.09;;;5.69;56.13
64967;BME280;51710;38.732;-121.358;2023-02-16T06:36:06;102058.28;;;5.66;56.25
64967;BME280;51710;38.732;-121.358;2023-02-16T06:38:33;102062.63;;;5.67;56.57
64967;BME280;51710;38.732;-121.358;2023-02-16T06:40:59;102075.66;;;5.70;56.57
64967;BME280;51710;38.732;-121.358;2023-02-16T06:43:25;102075.47;;;5.73;56.78
64967;BME280;51710;38.732;-121.358;2023-02-16T06:45:52;102079.59;;;5.77;56.14
64967;BME280;51710;38.732;-121.358;2023-02-16T06:48:18;102075.19;;;5.78;56.36
64967;BME280;51710;38.732;-121.358;2023-02-16T06:50:45;102085.56;;;5.81;56.49
64967;BME280;51710;38.732;-121.358;2023-02-16T06:53:11;102092.50;;;5.83;56.38
64967;BME280;51710;38.732;-121.358;2023-02-16T06:55:38;102092.66;;;5.80;56.39
64967;BME280;51710;38.732;-121.358;2023-02-16T06:58:07;102091.81;;;5.80;56.15
64967;BME280;51710;38.732;-121.358;2023-02-16T07:00:33;102085.38;;;5.69;56.63
64967;BME280;51710;38.732;-121.358;2023-02-16T07:03:00;102090.41;;;5.44;57.11
64967;BME280;51710;38.732;-121.358;2023-02-16T07:05:26;102088.38;;;5.20;57.65
64967;BME280;51710;38.732;-121.358;2023-02-16T07:07:53;102090.72;;;5.10;57.75
64967;BME280;51710;38.732;-121.358;2023-02-16T07:10:20;102081.16;;;5.08;58.26
64967;BME280;51710;38.732;-121.358;2023-02-16T07:12:47;102077.41;;;5.12;57.86
64967;BME280;51710;38.732;-121.358;2023-02-16T07:15:14;102083.00;;;5.21;58.27
64967;BME280;51710;38.732;-121.358;2023-02-16T07:17:40;102075.69;;;5.26;58.26
64967;BME280;51710;38.732;-121.358;2023-02-16T07:20:07;102075.19;;;5.34;57.92
64967;BME280;51710;38.732;-121.358;2023-02-16T07:22:33;102088.06;;;5.40;58.22
64967;BME280;51710;38.732;-121.358;2023-02-16T07:25:00;102087.88;;;5.43;58.00
64967;BME280;51710;38.732;-121.358;2023-02-16T07:27:26;102086.84;;;5.45;58.12
64967;BME280;51710;38.732;-121.358;2023-02-16T07:29:53;102088.53;;;5.46;58.14
64967;BME280;51710;38.732;-121.358;2023-02-16T07:32:19;102095.03;;;5.41;58.33
64967;BME280;51710;38.732;-121.358;2023-02-16T07:34:45;102091.81;;;5.36;58.35
64967;BME280;51710;38.732;-121.358;2023-02-16T07:37:14;102087.75;;;5.30;58.35
64967;BME280;51710;38.732;-121.358;2023-02-16T07:39:40;102092.34;;;5.27;58.37
64967;BME280;51710;38.732;-121.358;2023-02-16T07:42:07;102093.13;;;5.29;58.21
64967;BME280;51710;38.732;-121.358;2023-02-16T07:44:33;102100.03;;;5.31;58.14
64967;BME280;51710;38.732;-121.358;2023-02-16T07:46:59;102095.50;;;5.33;58.23
64967;BME280;51710;38.732;-121.358;2023-02-16T07:49:26;102094.47;;;5.36;58.23
64967;BME280;51710;38.732;-121.358;2023-02-16T07:51:52;102092.38;;;5.41;57.99
64967;BME280;51710;38.732;-121.358;2023-02-16T07:54:18;102099.09;;;5.46;57.79
64967;BME280;51710;38.732;-121.358;2023-02-16T07:56:45;102100.63;;;5.50;58.12
64967;BME280;51710;38.732;-121.358;2023-02-16T07:59:14;102103.94;;;5.54;57.69
64967;BME280;51710;38.732;-121.358;2023-02-16T08:01:41;102101.97;;;5.57;57.47
64967;BME280;51710;38.732;-121.358;2023-02-16T08:04:07;102101.13;;;5.57;57.30
64967;BME280;51710;38.732;-121.358;2023-02-16T08:06:34;102101.13;;;5.57;57.43
64967;BME280;51710;38.732;-121.358;2023-02-16T08:09:01;102095.81;;;5.57;57.12
64967;BME280;51710;38.732;-121.358;2023-02-16T08:11:27;102088.00;;;5.55;56.88
64967;BME280;51710;38.732;-121.358;2023-02-16T08:13:53;102091.50;;;5.56;57.56
64967;BME280;51710;38.732;-121.358;2023-02-16T08:16:22;102103.84;;;5.55;56.96
64967;BME280;51710;38.732;-121.358;2023-02-16T08:18:49;102088.91;;;5.54;56.86
64967;BME280;51710;38.732;-121.358;2023-02-16T08:21:18;102094.31;;;5.53;56.83
64967;BME280;51710;38.732;-121.358;2023-02-16T08:23:51;102092.63;;;5.52;56.92
64967;BME280;51710;38.732;-121.358;2023-02-16T08:26:19;102094.31;;;5.53;56.98
64967;BME280;51710;38.732;-121.358;2023-02-16T08:28:47;102090.84;;;5.52;56.82
64967;BME280;51710;38.732;-121.358;2023-02-16T08:31:20;102096.03;;;5.54;56.89
64967;BME280;51710;38.732;-121.358;2023-02-16T08:33:48;102094.31;;;5.53;56.46
64967;BME280;51710;38.732;-121.358;2023-02-16T08:36:17;102093.72;;;5.48;56.86
64967;BME280;51710;38.732;-121.358;2023-02-16T08:38:46;102090.41;;;5.44;56.81
64967;BME280;51710;38.732;-121.358;2023-02-16T08:41:19;102094.94;;;5.42;56.67
64967;BME280;51710;38.732;-121.358;2023-02-16T08:43:46;102085.44;;;5.40;56.68
64967;BME280;51710;38.732;-121.358;2023-02-16T08:46:14;102087.41;;;5.36;56.81
64967;BME280;51710;38.732;-121.358;2023-02-16T08:48:41;102083.13;;;5.34;56.62
64967;BME280;51710;38.732;-121.358;2023-02-16T08:51:16;102079.72;;;5.32;56.62
64967;BME280;51710;38.732;-121.358;2023-02-16T08:53:47;102082.47;;;5.30;56.89
64967;BME280;51710;38.732;-121.358;2023-02-16T08:56:14;102083.50;;;5.28;56.71
64967;BME280;51710;38.732;-121.358;2023-02-16T08:58:41;102084.53;;;5.25;56.77
64967;BME280;51710;38.732;-121.358;2023-02-16T09:01:08;102083.66;;;5.25;56.80
64967;BME280;51710;38.732;-121.358;2023-02-16T09:03:37;102084.63;;;5.24;56.81
64967;BME280;51710;38.732;-121.358;2023-02-16T09:06:05;102078.47;;;5.23;56.68
64967;BME280;51710;38.732;-121.358;2023-02-16T09:08:32;102083.38;;;5.15;56.76
64967;BME280;51710;38.732;-121.358;2023-02-16T09:11:02;102087.47;;;5.05;56.81
64967;BME280;51710;38.732;-121.358;2023-02-16T09:13:28;102086.81;;;5.02;57.14
64967;BME280;51710;38.732;-121.358;2023-02-16T09:16:03;102074.72;;;4.98;57.35
64967;BME280;51710;38.732;-121.358;2023-02-16T09:18:29;102078.91;;;5.02;57.31
64967;BME280;51710;38.732;-121.358;2023-02-16T09:21:02;102075.41;;;5.01;57.01
64967;BME280;51710;38.732;-121.358;2023-02-16T09:23:29;102080.75;;;5.00;57.24
64967;BME280;51710;38.732;-121.358;2023-02-16T09:25:58;102071.50;;;4.93;57.29
64967;BME280;51710;38.732;-121.358;2023-02-16T09:28:27;102076.09;;;4.89;57.43
64967;BME280;51710;38.732;-121.358;2023-02-16T09:30:54;102075.34;;;4.87;56.90
64967;BME280;51710;38.732;-121.358;2023-02-16T09:33:21;102073.88;;;4.82;56.98
64967;BME280;51710;38.732;-121.358;2023-02-16T09:35:47;102073.22;;;4.78;57.28
64967;BME280;51710;38.732;-121.358;2023-02-16T09:38:18;102070.84;;;4.74;57.65
64967;BME280;51710;38.732;-121.358;2023-02-16T09:40:46;102060.28;;;4.74;58.06
64967;BME280;51710;38.732;-121.358;2023-02-16T09:45:45;102066.06;;;4.80;57.70
64967;BME280;51710;38.732;-121.358;2023-02-16T09:51:02;102067.25;;;4.75;57.87
64967;BME280;51710;38.732;-121.358;2023-02-16T09:53:39;102068.28;;;4.72;57.95
64967;BME280;51710;38.732;-121.358;2023-02-16T10:04:44;102062.69;;;4.63;58.07
64967;BME280;51710;38.732;-121.358;2023-02-16T10:07:29;102055.72;;;4.62;57.89
64967;BME280;51710;38.732;-121.358;2023-02-16T10:09:58;102047.03;;;4.59;58.18
64967;BME280;51710;38.732;-121.358;2023-02-16T10:12:31;102045.50;;;4.55;57.52
64967;BME280;51710;38.732;-121.358;2023-02-16T10:15:04;102055.38;;;4.52;58.08
64967;BME280;51710;38.732;-121.358;2023-02-16T10:20:15;102053.84;;;4.48;58.26
64967;BME280;51710;38.732;-121.358;2023-02-16T10:22:48;102060.13;;;4.45;58.36
64967;BME280;51710;38.732;-121.358;2023-02-16T10:25:25;102060.31;;;4.42;58.27
64967;BME280;51710;38.732;-121.358;2023-02-16T10:28:20;102055.38;;;4.36;58.70
64967;BME280;51710;38.732;-121.358;2023-02-16T10:31:03;102070.78;;;4.28;58.88
64967;BME280;51710;38.732;-121.358;2023-02-16T10:33:45;102062.25;;;4.23;59.06
64967;BME280;51710;38.732;-121.358;2023-02-16T10:36:55;102067.25;;;4.12;58.92
64967;BME280;51710;38.732;-121.358;2023-02-16T10:39:42;102061.31;;;4.09;59.37
64967;BME280;51710;38.732;-121.358;2023-02-16T10:42:29;102062.41;;;4.05;59.42
64967;BME280;51710;38.732;-121.358;2023-02-16T10:47:38;102065.19;;;3.86;59.62
64967;BME280;51710;38.732;-121.358;2023-02-16T10:50:17;102078.13;;;3.74;59.83
64967;BME280;51710;38.732;-121.358;2023-02-16T10:52:45;102075.84;;;3.68;60.35
64967;BME280;51710;38.732;-121.358;2023-02-16T10:55:12;102078.53;;;3.66;60.16
64967;BME280;51710;38.732;-121.358;2023-02-16T10:57:39;102078.38;;;3.69;60.31
64967;BME280;51710;38.732;-121.358;2023-02-16T11:00:07;102076.44;;;3.73;60.68
64967;BME280;51710;38.732;-121.358;2023-02-16T11:02:42;102077.22;;;3.75;60.31
64967;BME280;51710;38.732;-121.358;2023-02-16T11:05:37;102081.63;;;3.74;60.71
64967;BME280;51710;38.732;-121.358;2023-02-16T11:08:05;102085.59;;;3.66;60.53
64967;BME280;51710;38.732;-121.358;2023-02-16T11:10:51;102081.78;;;3.54;60.69
64967;BME280;51710;38.732;-121.358;2023-02-16T11:13:29;102081.19;;;3.49;60.44
64967;BME280;51710;38.732;-121.358;2023-02-16T11:16:02;102083.84;;;3.32;60.99
64967;BME280;51710;38.732;-121.358;2023-02-16T11:18:31;102071.91;;;3.25;61.38
64967;BME280;51710;38.732;-121.358;2023-02-16T11:20:58;102077.50;;;3.19;61.05
64967;BME280;51710;38.732;-121.358;2023-02-16T11:23:33;102077.50;;;3.19;61.50
64967;BME280;51710;38.732;-121.358;2023-02-16T11:28:42;102081.03;;;3.18;61.37
64967;BME280;51710;38.732;-121.358;2023-02-16T11:33:39;102079.63;;;3.28;61.90
64967;BME280;51710;38.732;-121.358;2023-02-16T11:36:42;102081.97;;;3.34;61.27
64967;BME280;51710;38.732;-121.358;2023-02-16T11:39:21;102080.13;;;3.36;61.67
64967;BME280;51710;38.732;-121.358;2023-02-16T11:41:50;102085.38;;;3.36;61.01
64967;BME280;51710;38.732;-121.358;2023-02-16T11:44:28;102080.91;;;3.38;61.76
64967;BME280;51710;38.732;-121.358;2023-02-16T11:46:55;102083.03;;;3.47;61.53
64967;BME280;51710;38.732;-121.358;2023-02-16T11:51:57;102092.31;;;3.54;61.33
64967;BME280;51710;38.732;-121.358;2023-02-16T11:54:23;102086.75;;;3.60;61.32
64967;BME280;51710;38.732;-121.358;2023-02-16T11:57:04;102091.09;;;3.61;61.10
64967;BME280;51710;38.732;-121.358;2023-02-16T11:59:37;102089.91;;;3.67;61.11
64967;BME280;51710;38.732;-121.358;2023-02-16T12:05:25;102090.09;;;3.64;60.88
64967;BME280;51710;38.732;-121.358;2023-02-16T12:13:25;102090.94;;;3.64;61.54
64967;BME280;51710;38.732;-121.358;2023-02-16T12:16:14;102096.75;;;3.71;61.14
64967;BME280;51710;38.732;-121.358;2023-02-16T12:24:46;102103.75;;;3.87;61.61
64967;BME280;51710;38.732;-121.358;2023-02-16T12:27:21;102095.44;;;3.95;61.10
64967;BME280;51710;38.732;-121.358;2023-02-16T12:30:23;102103.09;;;3.99;61.35
64967;BME280;51710;38.732;-121.358;2023-02-16T12:41:46;102103.97;;;4.15;61.12
64967;BME280;51710;38.732;-121.358;2023-02-16T12:46:59;102100.09;;;4.22;60.84
64967;BME280;51710;38.732;-121.358;2023-02-16T12:49:35;102099.16;;;4.23;60.39
64967;BME280;51710;38.732;-121.358;2023-02-16T12:52:40;102098.06;;;4.27;60.58
64967;BME280;51710;38.732;-121.358;2023-02-16T13:00:46;102104.88;;;4.31;60.42
64967;BME280;51710;38.732;-121.358;2023-02-16T13:03:39;102099.41;;;4.34;60.18
64967;BME280;51710;38.732;-121.358;2023-02-16T13:06:29;102096.63;;;4.37;60.21
64967;BME280;51710;38.732;-121.358;2023-02-16T13:09:21;102096.47;;;4.40;59.93
64967;BME280;51710;38.732;-121.358;2023-02-16T13:11:54;102108.69;;;4.41;59.69
64967;BME280;51710;38.732;-121.358;2023-02-16T13:14:26;102105.16;;;4.42;59.60
64967;BME280;51710;38.732;-121.358;2023-02-16T13:16:56;102098.91;;;4.43;59.69
64967;BME280;51710;38.732;-121.358;2023-02-16T13:19:25;102102.41;;;4.44;59.72
64967;BME280;51710;38.732;-121.358;2023-02-16T13:24:34;102104.09;;;4.45;59.42
64967;BME280;51710;38.732;-121.358;2023-02-16T13:30:02;102102.41;;;4.44;59.35
64967;BME280;51710;38.732;-121.358;2023-02-16T13:33:16;102103.28;;;4.44;59.34
64967;BME280;51710;38.732;-121.358;2023-02-16T13:35:58;102102.34;;;4.45;59.43
64967;BME280;51710;38.732;-121.358;2023-02-16T13:44:10;102095.50;;;4.41;58.83
64967;BME280;51710;38.732;-121.358;2023-02-16T13:46:45;102097.22;;;4.42;58.91
64967;BME280;51710;38.732;-121.358;2023-02-16T13:49:31;102101.47;;;4.45;58.85
64967;BME280;51710;38.732;-121.358;2023-02-16T13:52:01;102094.41;;;4.45;58.52
64967;BME280;51710;38.732;-121.358;2023-02-16T13:54:34;102096.09;;;4.46;58.75
64967;BME280;51710;38.732;-121.358;2023-02-16T13:57:02;102095.97;;;4.49;58.21
64967;BME280;51710;38.732;-121.358;2023-02-16T14:01:56;102098.34;;;4.54;58.23
64967;BME280;51710;38.732;-121.358;2023-02-16T14:12:04;102084.38;;;4.68;57.92
64967;BME280;51710;38.732;-121.358;2023-02-16T14:17:22;102088.88;;;4.66;57.58
64967;BME280;51710;38.732;-121.358;2023-02-16T14:27:59;102101.22;;;4.65;57.28
64967;BME280;51710;38.732;-121.358;2023-02-16T14:36:06;102103.00;;;4.65;57.34
64967;BME280;51710;38.732;-121.358;2023-02-16T14:38:34;102112.63;;;4.66;57.18
64967;BME280;51710;38.732;-121.358;2023-02-16T14:41:04;102114.41;;;4.65;56.85
64967;BME280;51710;38.732;-121.358;2023-02-16T14:43:47;102110.94;;;4.65;57.09
64967;BME280;51710;38.732;-121.358;2023-02-16T14:49:12;102111.69;;;4.67;56.94
64967;BME280;51710;38.732;-121.358;2023-02-16T14:55:05;102111.69;;;4.67;56.62
64967;BME280;51710;38.732;-121.358;2023-02-16T14:58:02;102125.81;;;4.66;56.24
64967;BME280;51710;38.732;-121.358;2023-02-16T15:00:44;102123.34;;;4.63;56.43
64967;BME280;51710;38.732;-121.358;2023-02-16T15:03:18;102128.63;;;4.63;56.10
64967;BME280;51710;38.732;-121.358;2023-02-16T15:06:19;102136.44;;;4.64;56.38
64967;BME280;51710;38.732;-121.358;2023-02-16T15:08:52;102137.22;;;4.66;56.38
64967;BME280;51710;38.732;-121.358;2023-02-16T15:11:33;102140.44;;;4.71;56.56
64967;BME280;51710;38.732;-121.358;2023-02-16T15:14:08;102129.66;;;4.76;56.00